Time;durP1;ratioP1;P1;durP2;ratioP2;P2;SDS_P1;SDS_P2;PMS_P1;PMS_P2;Temp;Humidity;BMP_temperature;BMP_pressure;BME280_temperature;BME280_humidity;BME280_pressure;Samples;Min_cycle;Max_cycle;Signal;HPM_P1;HPM_P2
2023/06/18 00:05:37;;;;;;;15.63;14.02;;;;;;;26.78;42.38;100636.41;21087969;28;20044;-57
2023/06/18 00:15:38;;;;;;;16.17;14.23;;;;;;;26.78;42.37;100634.41;21087199;28;20069;-57
2023/06/18 00:25:40;;;;;;;16.70;14.90;;;;;;;26.76;42.46;100633.94;21086752;28;20036;-58
2023/06/18 00:35:42;;;;;;;16.50;14.75;;;;;;;26.78;42.47;100662.50;21085709;28;20105;-61
2023/06/18 00:45:46;;;;;;;16.38;14.32;;;;;;;26.80;42.63;100677.03;21085145;28;20549;-56
2023/06/18 00:55:50;;;;;;;16.10;14.10;;;;;;;26.79;42.61;100683.78;21083509;28;20098;-58
2023/06/18 01:06:03;;;;;;;15.27;13.65;;;;;;;26.77;42.42;100702.94;21083139;28;20085;-57
2023/06/18 01:16:09;;;;;;;14.38;12.82;;;;;;;26.79;42.45;100717.47;21082126;28;20464;-56
2023/06/18 01:26:11;;;;;;;14.95;13.15;;;;;;;26.80;42.46;100724.78;21081191;28;20036;-58
2023/06/18 01:36:13;;;;;;;13.48;12.07;;;;;;;26.76;42.49;100743.41;21080731;28;20040;-58
2023/06/18 01:46:21;;;;;;;14.10;12.50;;;;;;;26.80;42.50;100772.50;21080042;28;20044;-58
2023/06/18 01:56:23;;;;;;;14.65;13.10;;;;;;;26.81;42.46;100790.97;21079298;28;20415;-58
2023/06/18 02:06:25;;;;;;;13.00;11.70;;;;;;;26.82;42.55;100805.84;21077830;28;20040;-58
2023/06/18 02:16:29;;;;;;;14.10;12.63;;;;;;;26.81;42.40;100805.03;21078093;28;20036;-58
2023/06/18 02:26:30;;;;;;;13.20;11.65;;;;;;;26.68;42.52;100797.53;21077422;28;20032;-57
2023/06/18 02:36:34;;;;;;;13.15;11.73;;;;;;;26.80;42.21;100811.78;21077036;28;20442;-58
2023/06/18 02:46:38;;;;;;;12.70;11.38;;;;;;;26.81;42.23;100816.25;21076840;28;20040;-59
2023/06/18 02:56:42;;;;;;;12.15;10.85;;;;;;;26.84;42.44;100824.00;21076282;28;20047;-58
2023/06/18 03:06:44;;;;;;;13.00;11.65;;;;;;;26.84;42.41;100817.56;21076139;28;20044;-57
2023/06/18 03:16:46;;;;;;;15.05;12.38;;;;;;;26.86;42.15;100823.69;21084899;28;20056;-58
2023/06/18 03:26:47;;;;;;;12.95;11.15;;;;;;;26.84;42.05;100817.56;21091865;28;20040;-57
2023/06/18 03:36:49;;;;;;;12.13;10.88;;;;;;;26.71;42.29;100796.03;21090917;28;20415;-58
2023/06/18 03:46:50;;;;;;;12.43;11.13;;;;;;;26.80;42.06;100809.00;21089966;28;20062;-59
2023/06/18 03:56:57;;;;;;;11.93;10.73;;;;;;;26.83;42.00;100830.78;21090110;28;20044;-58
2023/06/18 04:06:59;;;;;;;11.55;10.40;;;;;;;26.86;42.18;100849.78;21088352;28;20040;-57
2023/06/18 04:17:01;;;;;;;11.38;10.07;;;;;;;26.84;41.83;100846.47;21088226;28;20367;-59
2023/06/18 04:27:02;;;;;;;10.52;9.43;;;;;;;26.86;41.87;100846.16;21085370;28;20536;-58
2023/06/18 04:37:04;;;;;;;10.93;9.75;;;;;;;26.88;41.84;100862.69;21086122;28;20040;-59
2023/06/18 04:47:05;;;;;;;10.90;9.80;;;;;;;26.77;41.70;100834.88;21085431;28;20044;-57
2023/06/18 04:57:10;;;;;;;10.02;9.02;;;;;;;26.85;41.87;100848.16;21084500;28;20047;-59
2023/06/18 05:07:12;;;;;;;11.07;9.98;;;;;;;26.86;41.86;100861.03;21083809;28;20048;-58
2023/06/18 05:17:13;;;;;;;11.38;10.05;;;;;;;26.85;41.57;100862.19;21082905;28;20036;-59
2023/06/18 05:27:14;;;;;;;9.63;8.68;;;;;;;26.83;41.40;100858.84;21082868;28;20097;-57
2023/06/18 05:37:16;;;;;;;10.10;9.10;;;;;;;26.85;41.48;100852.94;21081377;28;20184;-59
2023/06/18 05:47:17;;;;;;;10.75;9.65;;;;;;;26.86;41.66;100848.97;21081731;28;20040;-58
2023/06/18 05:57:18;;;;;;;10.52;9.43;;;;;;;26.85;41.30;100853.75;21079948;28;20371;-57
2023/06/18 06:07:21;;;;;;;9.85;8.85;;;;;;;26.83;41.54;100836.41;21078655;28;20044;-58
2023/06/18 06:17:22;;;;;;;10.50;9.40;;;;;;;26.81;41.31;100835.09;21078578;28;20117;-58
2023/06/18 06:27:23;;;;;;;10.98;9.65;;;;;;;26.84;41.38;100835.22;21077836;28;20032;-58
2023/06/18 06:37:29;;;;;;;10.48;9.32;;;;;;;26.82;41.29;100842.34;21077102;28;20441;-58
2023/06/18 06:47:30;;;;;;;9.43;8.43;;;;;;;26.84;41.12;100852.09;21076691;28;20455;-58
2023/06/18 06:57:32;;;;;;;10.70;9.60;;;;;;;26.83;41.30;100842.00;21076509;28;20044;-58
2023/06/18 07:07:38;;;;;;;10.13;9.13;;;;;;;26.82;41.17;100834.75;21075659;28;20048;-57
2023/06/18 07:17:39;;;;;;;8.98;8.07;;;;;;;26.80;41.15;100842.69;21076030;28;20085;-58
2023/06/18 07:27:41;;;;;;;11.38;8.75;;;;;;;26.76;41.11;100838.03;21075033;28;20048;-59
2023/06/18 07:37:42;;;;;;;10.20;9.00;;;;;;;26.81;41.00;100838.72;21075171;28;20040;-58
2023/06/18 07:47:43;;;;;;;9.70;8.70;;;;;;;26.81;40.93;100847.13;21074655;28;20380;-58
2023/06/18 07:57:47;;;;;;;9.95;8.95;;;;;;;26.81;40.94;100858.38;21074391;28;20089;-58
2023/06/18 08:07:51;;;;;;;10.80;9.48;;;;;;;26.80;40.69;100867.09;21088114;28;20032;-57
2023/06/18 08:17:56;;;;;;;10.68;9.57;;;;;;;26.79;40.79;100871.88;21087856;28;20173;-59
2023/06/18 08:27:58;;;;;;;10.25;9.15;;;;;;;26.79;40.88;100877.50;21087166;28;20036;-59
2023/06/18 08:38:00;;;;;;;10.45;9.05;;;;;;;26.51;40.84;100842.34;21086455;28;20040;-58
2023/06/18 08:48:06;;;;;;;10.60;9.60;;;;;;;26.77;40.64;100891.03;21086051;28;20059;-57
2023/06/18 08:58:15;;;;;;;10.48;9.07;;;;;;;26.72;40.75;100885.56;21085240;28;20094;-58
2023/06/18 09:08:17;;;;;;;9.75;8.48;;;;;;;26.77;40.74;100895.81;21084084;28;20102;-57
2023/06/18 09:18:21;;;;;;;11.43;10.18;;;;;;;26.76;40.80;100911.84;21082675;28;20032;-58
2023/06/18 09:28:26;;;;;;;10.20;8.90;;;;;;;26.75;40.64;100914.94;21082221;28;20036;-58
2023/06/18 09:38:48;;;;;;;11.18;9.27;;;;;;;26.69;40.58;100899.41;21081090;28;20536;-58
2023/06/18 09:48:50;;;;;;;10.50;9.40;;;;;;;26.73;40.47;100904.06;21080652;28;20448;-57
2023/06/18 09:58:54;;;;;;;11.40;10.20;;;;;;;26.73;40.54;100906.88;21080580;28;20036;-58
2023/06/18 10:08:58;;;;;;;12.00;10.30;;;;;;;26.72;40.40;100922.06;21079344;28;20036;-59
2023/06/18 10:19:25;;;;;;;10.63;9.52;;;;;;;26.69;40.41;100922.69;21078896;28;20032;-57
2023/06/18 10:29:29;;;;;;;11.27;10.07;;;;;;;26.71;40.26;100940.06;21076673;28;20044;-58
2023/06/18 10:39:30;;;;;;;12.95;10.88;;;;;;;26.72;40.31;100935.28;21078023;28;20438;-58
2023/06/18 10:49:35;;;;;;;11.20;10.05;;;;;;;26.71;40.25;100937.25;21077750;28;20036;-58
2023/06/18 10:59:45;;;;;;;11.43;10.23;;;;;;;26.70;40.05;100974.88;21076108;28;20074;-58
2023/06/18 11:09:48;;;;;;;11.68;10.45;;;;;;;26.70;40.33;100980.47;21075954;28;20039;-57
2023/06/18 11:19:52;;;;;;;11.95;10.73;;;;;;;26.68;40.09;100990.38;21075748;28;20048;-58
2023/06/18 11:30:00;;;;;;;11.48;10.27;;;;;;;26.70;40.39;101008.56;21075121;28;20070;-58
2023/06/18 11:40:05;;;;;;;12.40;11.00;;;;;;;26.70;40.12;101022.59;21087869;28;20085;-58
2023/06/18 11:50:10;;;;;;;12.43;10.27;;;;;;;26.65;40.35;101013.47;21090068;28;20048;-57
2023/06/18 12:00:12;;;;;;;12.95;11.43;;;;;;;26.52;40.25;101006.75;21089357;28;20036;-58
2023/06/18 12:10:14;;;;;;;12.63;11.32;;;;;;;26.67;40.51;101030.84;21088424;28;20051;-58
2023/06/18 12:20:18;;;;;;;12.60;11.30;;;;;;;26.69;39.87;101054.63;21087589;28;20051;-57
2023/06/18 12:30:30;;;;;;;12.40;11.10;;;;;;;26.69;39.90;101060.22;21086777;28;20540;-57
2023/06/18 12:40:32;;;;;;;12.75;11.35;;;;;;;26.69;40.26;101068.66;21085746;28;20456;-59
2023/06/18 12:50:36;;;;;;;13.82;12.05;;;;;;;26.68;40.29;101078.22;21084420;28;20044;-59
2023/06/18 13:00:37;;;;;;;13.85;12.45;;;;;;;26.70;39.97;101072.28;21084399;28;20036;-58
2023/06/18 13:10:42;;;;;;;14.15;12.52;;;;;;;26.70;40.05;101075.09;21083317;28;20040;-58
2023/06/18 13:20:45;;;;;;;13.43;11.90;;;;;;;26.68;40.04;101069.81;21082615;28;20090;-57
2023/06/18 13:30:47;;;;;;;13.30;11.75;;;;;;;26.70;39.90;101069.47;21081703;28;20044;-57
2023/06/18 13:40:48;;;;;;;13.77;11.93;;;;;;;26.65;40.03;101062.00;21080881;28;20440;-55
2023/06/18 13:50:52;;;;;;;13.98;12.30;;;;;;;26.71;40.28;101073.94;21079820;28;20474;-59
2023/06/18 14:00:57;;;;;;;13.18;11.77;;;;;;;26.58;39.84;101044.78;21079321;28;20144;-58
2023/06/18 14:11:01;;;;;;;13.35;11.85;;;;;;;26.70;40.22;101053.47;21078618;28;20101;-57
2023/06/18 14:21:03;;;;;;;14.88;12.48;;;;;;;26.70;40.17;101053.47;21078588;28;20108;-58
2023/06/18 14:31:05;;;;;;;14.05;12.57;;;;;;;26.63;40.25;101027.84;21076702;28;20055;-57
2023/06/18 14:41:06;;;;;;;14.60;12.48;;;;;;;26.67;40.13;101014.81;21076516;28;20032;-57
2023/06/18 14:51:15;;;;;;;14.07;12.55;;;;;;;26.70;40.03;101019.78;21076305;28;20147;-59
2023/06/18 15:01:16;;;;;;;13.57;12.18;;;;;;;26.71;40.26;101024.28;21075939;28;20044;-57
2023/06/18 15:11:18;;;;;;;15.38;13.43;;;;;;;26.67;40.17;101028.84;21082468;28;20036;-58
2023/06/18 15:21:19;;;;;;;15.30;13.43;;;;;;;26.72;40.56;101045.56;21092817;28;20039;-58
2023/06/18 15:31:21;;;;;;;16.55;14.20;;;;;;;26.72;40.30;101048.38;21091392;28;20136;-56
2023/06/18 15:41:22;;;;;;;15.70;14.00;;;;;;;26.73;40.36;101049.22;21090831;28;20440;-56
2023/06/18 15:51:24;;;;;;;16.48;14.50;;;;;;;26.72;40.27;101027.91;21089542;28;20036;-56
2023/06/18 16:01:25;;;;;;;16.13;14.43;;;;;;;26.71;40.41;101015.84;21088943;28;20115;-57
2023/06/18 16:11:26;;;;;;;15.80;14.15;;;;;;;26.75;40.09;101044.09;21088419;28;20039;-56
2023/06/18 16:21:28;;;;;;;15.88;14.18;;;;;;;26.71;40.66;101038.31;21085970;28;20032;-59
2023/06/18 16:31:32;;;;;;;16.13;14.43;;;;;;;26.75;40.45;101047.72;21086521;28;20070;-57
2023/06/18 16:41:33;;;;;;;16.58;14.77;;;;;;;26.67;40.45;101048.50;21085997;28;20036;-58
2023/06/18 16:51:35;;;;;;;18.17;16.27;;;;;;;26.75;40.43;101063.75;21085750;28;20040;-58
2023/06/18 17:01:37;;;;;;;17.63;15.73;;;;;;;26.69;40.82;101022.91;21085146;28;20044;-57
2023/06/18 17:11:40;;;;;;;17.30;15.43;;;;;;;26.75;40.78;101022.47;21083962;28;20040;-58
2023/06/18 17:21:45;;;;;;;18.17;16.38;;;;;;;26.77;40.57;101020.19;21082978;28;20109;-56
2023/06/18 17:31:46;;;;;;;19.67;17.38;;;;;;;26.77;40.86;100999.69;21082014;28;20483;-58
2023/06/18 17:41:48;;;;;;;19.33;17.15;;;;;;;26.79;40.91;101011.41;21082348;28;20040;-57
2023/06/18 17:51:49;;;;;;;19.33;16.27;;;;;;;26.80;41.00;101013.06;21080433;28;20044;-57
2023/06/18 18:01:51;;;;;;;19.67;17.08;;;;;;;26.81;40.96;101000.72;21079679;28;20114;-60
2023/06/18 18:11:52;;;;;;;18.23;16.33;;;;;;;26.82;41.07;100994.78;21079085;28;20040;-58
2023/06/18 18:21:54;;;;;;;18.80;16.83;;;;;;;26.82;41.11;100983.53;21078574;28;20097;-59
2023/06/18 18:31:56;;;;;;;19.33;17.33;;;;;;;26.83;41.01;100979.59;21077204;28;20044;-57
2023/06/18 18:41:57;;;;;;;18.35;16.35;;;;;;;26.81;41.42;100978.25;21076955;28;20039;-58
2023/06/18 18:52:01;;;;;;;20.25;17.30;;;;;;;26.86;41.38;100987.38;21075792;28;20044;-58
2023/06/18 19:02:03;;;;;;;18.70;16.60;;;;;;;26.87;41.44;100979.78;21076000;28;20044;-57
2023/06/18 19:12:05;;;;;;;19.65;17.02;;;;;;;26.82;41.45;100977.94;21075692;28;20549;-56
2023/06/18 19:22:08;;;;;;;18.42;16.55;;;;;;;26.89;41.58;100982.25;21075455;28;20616;-57
2023/06/18 19:32:09;;;;;;;19.33;17.13;;;;;;;26.84;41.49;100975.63;21074872;28;20048;-57
2023/06/18 19:42:11;;;;;;;18.52;16.55;;;;;;;26.88;41.59;100975.81;21074635;28;20476;-55
2023/06/18 19:52:12;;;;;;;18.23;15.52;;;;;;;26.86;41.65;100990.19;21074305;28;20028;-57
2023/06/18 20:02:14;;;;;;;16.73;14.90;;;;;;;26.93;41.68;101011.34;21087582;28;20113;-58
2023/06/18 20:12:18;;;;;;;16.67;14.98;;;;;;;26.94;41.74;101013.00;21087977;28;20044;-57
2023/06/18 20:22:19;;;;;;;17.83;15.93;;;;;;;26.80;41.71;100996.22;21087285;28;20032;-59
2023/06/18 20:32:21;;;;;;;18.13;15.88;;;;;;;26.95;42.20;101023.13;21087049;28;20048;-57
2023/06/18 20:42:23;;;;;;;16.80;15.02;;;;;;;26.96;41.80;101013.53;21086020;28;20503;-57
2023/06/18 20:52:24;;;;;;;16.73;14.98;;;;;;;26.98;41.97;101016.84;21085469;28;20093;-56
2023/06/18 21:02:26;;;;;;;17.58;15.70;;;;;;;26.98;42.50;100997.19;21084388;28;20043;-57
2023/06/18 21:12:28;;;;;;;16.60;14.80;;;;;;;26.99;42.72;100999.69;21083319;28;20544;-59
2023/06/18 21:22:29;;;;;;;17.80;15.70;;;;;;;27.00;42.48;100989.28;21082450;28;20043;-58
2023/06/18 21:32:31;;;;;;;17.05;15.25;;;;;;;27.01;42.76;100990.94;21081442;28;20044;-58
2023/06/18 21:42:32;;;;;;;15.65;13.73;;;;;;;26.99;43.06;101005.31;21081227;28;20048;-58
2023/06/18 21:52:34;;;;;;;16.92;15.18;;;;;;;27.01;43.35;101019.00;21080078;28;20052;-56
2023/06/18 22:02:35;;;;;;;16.85;14.93;;;;;;;27.05;43.27;101015.25;21080347;28;20036;-57
2023/06/18 22:12:39;;;;;;;15.88;14.23;;;;;;;27.04;43.19;101019.22;21078531;28;20048;-57
2023/06/18 22:22:41;;;;;;;18.35;15.32;;;;;;;27.04;43.47;101018.38;21076836;28;20040;-59
2023/06/18 22:32:44;;;;;;;15.43;13.82;;;;;;;27.06;43.38;101011.28;21077668;28;20108;-57
2023/06/18 22:42:45;;;;;;;16.27;14.57;;;;;;;27.07;43.26;101035.41;21076899;28;20039;-57
2023/06/18 22:52:46;;;;;;;15.88;14.18;;;;;;;27.06;43.47;101027.31;21076713;28;20039;-56
2023/06/18 23:02:48;;;;;;;15.85;14.15;;;;;;;27.03;43.86;101025.13;21076134;28;20036;-58
2023/06/18 23:12:52;;;;;;;16.45;14.75;;;;;;;27.10;43.66;101034.78;21075872;28;20125;-57
2023/06/18 23:22:53;;;;;;;16.13;14.43;;;;;;;27.13;43.75;101027.72;21075296;28;20048;-57
2023/06/18 23:32:55;;;;;;;16.98;13.60;;;;;;;27.13;43.69;101033.34;21082161;28;20479;-57
2023/06/18 23:42:56;;;;;;;15.38;13.77;;;;;;;27.15;44.03;101041.44;21091219;28;20048;-58
2023/06/18 23:53:01;;;;;;;15.32;13.60;;;;;;;27.00;43.93;101025.78;21089959;28;20040;-59
